Flight Track Log - Related Links

Times and Time Zones

All times are in EDT time to prevent confusion due to time zone crossing. See the GJS3649 flight status page for this flight to view local times or setup timezone preferences in your user account.

Time Position Orientation Groundspeed Altitude Reporting Facility
EDT Latitude Longitude Course Direction KTS MPH feet Rate Location/Type
Tue 09:05:05 AM 42.0167 -87.8333 90° East 187 215 3,000  Level Chicago TRACON
Tue 09:06:11 AM 42.0167 -87.7333 90° East 273 314 5,000 2,302 Climbing Chicago TRACON
Tue 09:07:44 AM 42.0322 -87.5658 83° East 288 331 9,100 2,766 Climbing Chicago Center
Tue 09:08:45 AM 42.0250 -87.4456 95° East 317 365 12,100 2,683 Climbing Chicago Center
Tue 09:09:47 AM 42.0169 -87.3239 95° East 325 374 14,600 1,839 Climbing Chicago Center
Tue 09:10:00 AM 42.2667 -87.0342 90° East  Level FlightAware Approximate
Tue 09:10:49 AM 42.0253 -87.1825 85° East 380 437 15,900  Level Chicago Center
Tue 09:11:50 AM 42.0447 -87.0253 80° East 421 484 17,700 1,756 Climbing Chicago Center
Tue 09:12:52 AM 42.0647 -86.8611 81° East 442 509 19,500 2,049 Climbing Chicago Center
Tue 09:13:53 AM 42.0867 -86.6781 81° East 461 531 21,900 2,390 Climbing Chicago Center
Tue 09:14:55 AM 42.1075 -86.5094 80° East 459 528 24,400 2,146 Climbing Chicago Center
Tue 09:15:56 AM 42.1269 -86.3408 81° East 455 524 26,300 1,659 Climbing Chicago Center
Tue 09:16:58 AM 42.1458 -86.1686 82° East 462 532 27,800 1,306 Climbing Chicago Center
Tue 09:18:00 AM 42.1656 -85.9944 81° East 468 539 29,000 1,268 Climbing Chicago Center
Tue 09:19:01 AM 42.1875 -85.7953 81° East 481 554 30,400 1,024 Climbing Chicago Center
Tue 09:20:03 AM 42.2083 -85.6128 81° East 493 567 31,100 677 Climbing Chicago Center
Tue 09:21:05 AM 42.2272 -85.4225 82° East 510 587 31,800 850 Climbing Chicago Center
Tue 09:21:56 AM 42.2486 -85.2514 80° East 518 596 32,700 1,189 Climbing Cleveland Center
Tue 09:22:56 AM 42.2717 -85.0425 81° East 518 596 34,000 1,150 Climbing Cleveland Center
Tue 09:23:56 AM 42.2892 -84.8528 83° East 512 589 35,000 500 Climbing Cleveland Center
Tue 09:24:56 AM 42.3083 -84.6661 82° East 512 589 35,000  Level Cleveland Center
Tue 09:25:56 AM 42.3206 -84.5011 84° East 500 575 35,000  Level Cleveland Center
Tue 09:26:56 AM 42.3392 -84.3111 82° East 500 575 35,000  Level Cleveland Center
Tue 09:27:56 AM 42.3575 -84.1267 82° East 500 575 35,000  Level Cleveland Center
Tue 09:28:56 AM 42.3758 -83.9394 82° East 500 575 35,000  Level Cleveland Center
Tue 09:29:56 AM 42.3933 -83.7575 83° East 494 568 35,000  Level Cleveland Center
Tue 09:30:56 AM 42.4089 -83.5669 84° East 501 577 35,000  Level Cleveland Center
Tue 09:31:56 AM 42.4161 -83.3675 87° East 494 568 35,000 100 Level Cleveland Center
Tue 09:32:56 AM 42.4225 -83.1767 87° East 494 568 35,200 500 Climbing Cleveland Center
Tue 09:33:56 AM 42.4331 -82.9858 86° East 499 574 36,000 850 Climbing Cleveland Center
Tue 09:34:56 AM 42.4472 -82.7978 84° East 499 574 36,900 1,050 Climbing Cleveland Center
Tue 09:35:56 AM 42.4592 -82.6067 85° East 499 574 38,100 1,050 Climbing Cleveland Center
Tue 09:36:56 AM 42.4747 -82.4242 83° East 499 574 39,000 450 Climbing Cleveland Center
Tue 09:37:56 AM 42.4878 -82.2417 84° East 499 574 39,000  Level Cleveland Center
Tue 09:38:56 AM 42.4986 -82.0644 85° East 487 560 39,000  Level Cleveland Center
Tue 09:39:56 AM 42.5111 -81.8872 84° East 476 548 39,000  Level Cleveland Center
Tue 09:40:56 AM 42.5233 -81.7269 84° East 476 548 39,000  Level Cleveland Center
Tue 09:41:56 AM 42.5333 -81.5525 85° East 479 551 39,000  Level Cleveland Center
Tue 09:42:56 AM 42.5450 -81.3694 85° East 479 551 39,000  Level Cleveland Center
Tue 09:43:56 AM 42.5544 -81.1919 86° East 479 551 39,000  Level Cleveland Center
Tue 09:44:56 AM 42.5658 -80.9947 85° East 479 551 39,000  Level Cleveland Center
Tue 09:45:56 AM 42.5767 -80.8144 85° East 487 560 39,000  Level Cleveland Center
Tue 09:46:56 AM 42.5853 -80.6311 86° East 483 556 39,000  Level Cleveland Center
Tue 09:47:56 AM 42.5936 -80.4478 86° East 483 556 39,000  Level Cleveland Center
Tue 09:48:56 AM 42.6036 -80.2617 86° East 477 549 39,000  Level Cleveland Center
Tue 09:49:56 AM 42.6133 -80.0839 86° East 477 549 39,000  Level Cleveland Center
Tue 09:50:56 AM 42.6208 -79.9117 87° East 501 577 39,000  Level Cleveland Center
Tue 09:51:56 AM 42.6300 -79.7083 86° East 492 566 39,000  Level Cleveland Center
Tue 09:52:56 AM 42.6389 -79.5278 86° East 485 558 39,000  Level Cleveland Center
Tue 09:53:56 AM 42.6475 -79.3608 86° East 485 558 39,000  Level Cleveland Center
Tue 09:54:56 AM 42.6539 -79.1744 87° East 485 558 39,000  Level Cleveland Center
Tue 09:55:56 AM 42.6617 -78.9711 87° East 485 558 39,000  Level Cleveland Center
Tue 09:56:56 AM 42.6694 -78.7900 87° East 479 551 39,000  Level Cleveland Center
Tue 09:57:56 AM 42.6767 -78.6036 87° East 479 551 39,000  Level Cleveland Center
Tue 09:58:56 AM 42.6839 -78.4281 87° East 477 549 39,000  Level Cleveland Center
Tue 09:59:56 AM 42.6886 -78.2331 88° East 491 565 39,000  Level Cleveland Center
Tue 10:00:56 AM 42.6928 -78.0464 88° East 491 565 39,000  Level Cleveland Center
Tue 10:01:56 AM 42.6989 -77.8483 88° East 504 580 39,000  Level Cleveland Center
Tue 10:03:46 AM 42.7114 -77.5361 87° East 478 550 39,000  Level Boston Center
Tue 10:04:48 AM 42.7156 -77.3469 88° East 484 557 39,000  Level Boston Center
Tue 10:05:48 AM 42.7214 -77.1578 88° East 490 564 39,000  Level Boston Center
Tue 10:06:48 AM 42.7228 -76.9714 89° East 495 570 39,000  Level Boston Center
Tue 10:07:46 AM 42.7303 -76.7822 87° East 495 570 39,000  Level Boston Center
Tue 10:08:46 AM 42.7431 -76.6022 84° East 488 562 39,000  Level Boston Center
Tue 10:09:48 AM 42.7703 -76.4258 78° East 482 555 39,000  Level Boston Center
Tue 10:10:48 AM 42.7994 -76.2464 77° East 477 549 39,000  Level Boston Center
Tue 10:11:46 AM 42.8261 -76.0697 78° East 477 549 39,000  Level Boston Center
Tue 10:12:46 AM 42.8525 -75.8900 79° East 477 549 39,000  Level Boston Center
Tue 10:13:46 AM 42.8786 -75.7128 79° East 482 555 39,000  Level Boston Center
Tue 10:14:48 AM 42.9044 -75.5356 79° East 482 555 39,000 -200 Level Boston Center
Tue 10:15:46 AM 42.9300 -75.3581 79° East 482 555 38,600 -712 Descending Boston Center
Tue 10:16:46 AM 42.9553 -75.1806 79° East 482 555 37,600 -793 Descending Boston Center
Tue 10:17:47 AM 42.9803 -75.0000 79° East 482 555 37,000 -347 Descending Boston Center
Tue 10:18:47 AM 43.0050 -74.8222 79° East 482 555 36,900  Descending Boston Center
Tue 10:19:48 AM 43.0314 -74.6442 78° East 476 548 37,000 49 Climbing Boston Center
Tue 10:20:49 AM 43.0536 -74.4661 80° East 476 548 37,000 -51 Level Boston Center
Tue 10:21:46 AM 43.0567 -74.2814 89° East 481 554 36,900  Descending Boston Center
Tue 10:22:48 AM 43.0617 -74.0911 88° East 481 554 37,000 50 Climbing Boston Center
Tue 10:23:46 AM 43.0664 -73.9008 88° East 493 567 37,000  Level Boston Center
Tue 10:24:47 AM 43.0750 -73.6822 87° East 508 585 37,000  Level Boston Center
Tue 10:25:48 AM 43.0875 -73.4833 85° East 519 597 37,000  Level Boston Center
Tue 10:26:48 AM 43.1222 -73.3133 74° East 514 592 37,000  Level Boston Center
Tue 10:27:48 AM 43.1550 -73.1175 77° East 514 592 37,000  Level Boston Center
Tue 10:28:46 AM 43.1872 -72.9242 77° East 519 597 37,000 -857 Level Boston Center
Tue 10:29:47 AM 43.2192 -72.7364 77° East 513 590 35,300 -2,083 Descending Boston Center
Tue 10:30:47 AM 43.2486 -72.5514 78° East 502 578 32,800 -2,777 Descending Boston Center
Tue 10:31:48 AM 43.2778 -72.3717 77° East 497 572 29,700 -2,926 Descending Boston Center
Tue 10:32:48 AM 43.3047 -72.1975 78° East 484 557 26,900 -2,847 Descending Boston Center
Tue 10:33:46 AM 43.3292 -72.0264 79° East 466 536 24,100 -2,797 Descending Boston Center
Tue 10:34:46 AM 43.3556 -71.8633 77° East 446 513 21,400 -2,628 Descending Boston Center
Tue 10:35:47 AM 43.3817 -71.6917 78° East 433 498 18,800 -2,557 Descending Boston Center
Tue 10:36:48 AM 43.4056 -71.5369 78° East 407 468 16,200 -2,300 Descending Boston Center
Tue 10:37:47 AM 43.4250 -71.3908 80° East 401 461 14,200 -2,067 Descending Boston Center
Tue 10:38:47 AM 43.4486 -71.2475 77° East 390 449 12,100 -1,587 Descending Boston Center
Tue 10:39:48 AM 43.4703 -71.1211 77° East 385 443 11,000 -550 Descending Boston Center
Tue 10:40:47 AM 43.5103 -70.9744 69° East 375 432 11,000 -403 Level Boston Center
Tue 10:41:47 AM 43.5400 -70.8706 68° East 346 398 10,200 -1,537 Descending Boston Center
Tue 10:42:48 AM 43.5758 -70.7519 67° East 305 351 7,900 -2,132 Descending Boston Center
Tue 10:43:48 AM 43.6056 -70.6539 67° East 280 322 5,900 -2,237 Descending Boston Center
Tue 10:44:46 AM 43.6333 -70.5639 67° East 264 304 3,500 -2,000 Descending Boston Center
Tue 10:45:48 AM 43.6678 -70.4997 53° Northeast 230 265 1,900 -878 Descending Boston Center
Tue 10:46:49 AM 43.6542 -70.4342 106° East 162 186 1,700 -458 Descending Boston Center
Tue 10:47:46 AM 43.6511 -70.3828 95° East 146 168 1,000 -712 Descending Boston Center
Tue 10:48:47 AM 43.6481 -70.3369 95° East 126 145 300 -393 Descending Boston Center
Tue 10:49:48 AM 43.6433 -70.2969 99° East 121 139 200 5,350 Descending Boston Center
Tue 10:50:47 AM 43.6361 -70.2542 103° East 121 139 11,000 5,400 Climbing Boston Center
Tue 10:51:48 AM 43.6311 -70.2111 99° East 121 139 11,000  Level Boston Center
Tue 10:52:48 AM 43.6242 -70.1683 103° East 121 139 11,000  Level Boston Center
Tue 10:54:00 AM 43.6333 -70.3000 270° West  Level FlightAware Approximate
Tue 11:01:00 AM 43.6456 -70.3086 270° West  Level Estimated
Tue 11:02:00 AM 43.6456 -70.3086 270° West  Level Estimated
Tue 11:03:00 AM 43.6456 -70.3086 270° West  Level Estimated
Tue 11:04:00 AM 43.6456 -70.3086 270° West  Level Estimated
Tue 11:05:00 AM 43.6456 -70.3086 270° West  Level Estimated
Tue 11:06:00 AM 43.6456 -70.3086 270° West  Level Estimated

Login

Don't have an account? Register now (free) for customized features, flight alerts, and more!